createdAt,value
2023-01-20T00:01:22.472Z,0.70
2023-01-20T00:03:50.655Z,0.60
2023-01-20T00:06:17.479Z,0.60
2023-01-20T00:08:44.363Z,0.60
2023-01-20T00:11:12.392Z,0.70
2023-01-20T00:13:39.817Z,0.70
2023-01-20T00:16:08.325Z,0.70
2023-01-20T00:18:35.464Z,0.70
2023-01-20T00:21:06.033Z,0.70
2023-01-20T00:23:48.550Z,0.60
2023-01-20T00:26:16.876Z,0.50
2023-01-20T00:28:44.389Z,0.50
2023-01-20T00:31:15.468Z,0.50
2023-01-20T00:33:42.463Z,0.50
2023-01-20T00:36:09.946Z,0.60
2023-01-20T00:38:37.990Z,0.60
2023-01-20T00:41:05.416Z,0.80
2023-01-20T00:43:32.282Z,0.70
2023-01-20T00:45:59.133Z,0.60
2023-01-20T00:48:25.930Z,0.60
2023-01-20T00:50:52.770Z,0.60
2023-01-20T00:53:19.621Z,0.60
2023-01-20T00:55:46.532Z,0.50
2023-01-20T00:58:13.479Z,0.50
2023-01-20T01:00:40.379Z,0.50
2023-01-20T01:03:07.208Z,0.50
2023-01-20T01:05:34.009Z,0.50
2023-01-20T01:08:00.861Z,0.70
2023-01-20T01:10:27.635Z,0.70
2023-01-20T01:12:54.452Z,0.50
2023-01-20T01:15:21.280Z,0.60
2023-01-20T01:17:48.134Z,0.50
2023-01-20T01:20:15.150Z,0.60
2023-01-20T01:22:41.962Z,0.40
2023-01-20T01:25:08.885Z,0.30
2023-01-20T01:27:35.848Z,0.40
2023-01-20T01:30:03.289Z,0.40
2023-01-20T01:32:30.210Z,0.40
2023-01-20T01:34:57.059Z,0.30
2023-01-20T01:37:23.883Z,0.50
2023-01-20T01:39:50.876Z,0.50
2023-01-20T01:42:19.126Z,0.50
2023-01-20T01:45:04.769Z,0.50
2023-01-20T01:47:31.653Z,0.50
2023-01-20T01:49:58.547Z,0.50
2023-01-20T01:52:25.368Z,0.60
2023-01-20T01:54:53.152Z,0.60
2023-01-20T01:57:20.153Z,0.40
2023-01-20T01:59:47.077Z,0.40
2023-01-20T02:02:15.285Z,0.30
2023-01-20T02:04:44.001Z,0.30
2023-01-20T02:07:14.312Z,0.20
2023-01-20T02:09:41.400Z,0.30
2023-01-20T02:12:10.813Z,0.20
2023-01-20T02:14:41.368Z,0.30
2023-01-20T02:17:27.089Z,0.40
2023-01-20T02:20:06.385Z,0.50
2023-01-20T02:22:56.285Z,0.50
2023-01-20T02:25:32.445Z,0.40
2023-01-20T02:28:18.188Z,0.50
2023-01-20T02:30:58.246Z,0.40
2023-01-20T02:33:57.292Z,0.50
2023-01-20T02:36:24.097Z,0.60
2023-01-20T02:39:08.228Z,0.70
2023-01-20T02:41:38.097Z,0.70
2023-01-20T02:44:24.573Z,0.80
2023-01-20T02:47:10.248Z,0.80
2023-01-20T02:49:40.904Z,0.80
2023-01-20T02:52:13.400Z,0.80
2023-01-20T02:54:42.031Z,0.90
2023-01-20T02:57:10.360Z,1.00
2023-01-20T02:59:39.057Z,0.90
2023-01-20T03:02:26.145Z,0.70
2023-01-20T03:04:55.452Z,0.60
2023-01-20T03:07:24.376Z,0.70
2023-01-20T03:09:52.124Z,0.60
2023-01-20T03:12:30.987Z,0.50
2023-01-20T03:14:57.844Z,0.50
2023-01-20T03:17:24.632Z,0.40
2023-01-20T03:19:51.545Z,0.60
2023-01-20T03:22:18.469Z,0.50
2023-01-20T03:24:46.396Z,0.40
2023-01-20T03:27:13.469Z,0.30
2023-01-20T03:29:40.281Z,0.30
2023-01-20T03:32:08.705Z,0.40
2023-01-20T03:34:36.581Z,0.40
2023-01-20T03:37:03.935Z,0.40
2023-01-20T03:39:31.485Z,0.40
2023-01-20T03:42:06.049Z,0.40
2023-01-20T03:44:39.096Z,0.30
2023-01-20T03:47:24.752Z,0.30
2023-01-20T03:49:54.679Z,0.50
2023-01-20T03:52:47.719Z,0.50
2023-01-20T03:55:31.741Z,0.60
2023-01-20T03:58:03.522Z,0.50
2023-01-20T04:00:32.987Z,0.50
2023-01-20T04:03:02.133Z,0.50
2023-01-20T04:05:29.441Z,0.50
2023-01-20T04:07:57.736Z,0.60
2023-01-20T04:10:27.136Z,0.60
2023-01-20T04:12:54.415Z,0.50
2023-01-20T04:15:22.099Z,0.50
2023-01-20T04:17:48.860Z,0.70
2023-01-20T04:20:15.949Z,0.60
2023-01-20T04:22:50.637Z,0.60
2023-01-20T04:25:24.567Z,0.60
2023-01-20T04:27:51.695Z,0.70
2023-01-20T04:30:18.559Z,0.70
2023-01-20T04:32:45.510Z,0.70
2023-01-20T04:35:17.213Z,0.60
2023-01-20T04:37:44.405Z,0.60
2023-01-20T04:40:11.911Z,0.50
2023-01-20T04:42:38.830Z,0.50
2023-01-20T04:45:05.788Z,0.60
2023-01-20T04:47:33.737Z,0.70
2023-01-20T04:50:00.594Z,0.60
2023-01-20T04:52:27.433Z,0.60
2023-01-20T04:54:54.376Z,0.50
2023-01-20T04:57:21.158Z,0.50
2023-01-20T04:59:47.982Z,0.40
2023-01-20T05:02:14.904Z,0.40
2023-01-20T05:04:41.824Z,0.60
2023-01-20T05:07:09.140Z,0.40
2023-01-20T05:09:35.957Z,0.50
2023-01-20T05:12:02.960Z,0.50
2023-01-20T05:14:29.825Z,0.40
2023-01-20T05:16:56.716Z,0.40
2023-01-20T05:19:23.631Z,0.30
2023-01-20T05:21:50.525Z,0.10
2023-01-20T05:24:17.357Z,0.10
2023-01-20T05:26:44.159Z,0.30
2023-01-20T05:29:11.241Z,0.20
2023-01-20T05:31:43.230Z,0.20
2023-01-20T05:34:11.025Z,0.40
2023-01-20T05:36:37.885Z,0.30
2023-01-20T05:39:04.860Z,0.30
2023-01-20T05:41:31.656Z,0.40
2023-01-20T05:43:58.461Z,0.30
2023-01-20T05:46:25.353Z,0.20
2023-01-20T05:48:52.213Z,0.10
2023-01-20T05:51:19.155Z,0.20
2023-01-20T05:53:45.971Z,0.00
2023-01-20T05:56:15.983Z,-0.10
2023-01-20T05:58:43.107Z,-0.10
2023-01-20T06:01:11.428Z,-0.10
2023-01-20T06:03:38.789Z,-0.20
2023-01-20T06:06:07.131Z,-0.20
2023-01-20T06:08:34.591Z,-0.20
2023-01-20T06:11:01.602Z,-0.30
2023-01-20T06:13:28.518Z,-0.30
2023-01-20T06:15:55.746Z,-0.40
2023-01-20T06:18:23.181Z,-0.50
2023-01-20T06:20:50.011Z,-0.50
2023-01-20T06:23:16.864Z,-0.50
2023-01-20T06:25:44.087Z,-0.60
2023-01-20T06:28:10.929Z,-0.80
2023-01-20T06:30:38.665Z,-0.70
2023-01-20T06:33:10.577Z,-0.90
2023-01-20T06:35:37.805Z,-0.80
2023-01-20T06:38:04.731Z,-1.00
2023-01-20T06:40:31.822Z,-1.20
2023-01-20T06:42:58.822Z,-1.20
2023-01-20T06:45:25.656Z,-1.30
2023-01-20T06:47:52.591Z,-1.30
2023-01-20T06:50:19.507Z,-1.40
2023-01-20T06:52:46.411Z,-1.50
2023-01-20T06:55:13.512Z,-1.50
2023-01-20T06:57:40.522Z,-1.60
2023-01-20T07:00:07.774Z,-1.70
2023-01-20T07:02:34.652Z,-1.80
2023-01-20T07:05:02.523Z,-1.80
2023-01-20T07:07:29.337Z,-1.60
2023-01-20T07:09:56.214Z,-1.70
2023-01-20T07:12:23.039Z,-1.80
2023-01-20T07:14:49.927Z,-1.90
2023-01-20T07:17:16.752Z,-1.80
2023-01-20T07:19:43.708Z,-1.80
2023-01-20T07:22:10.622Z,-1.90
2023-01-20T07:24:37.543Z,-1.80
2023-01-20T07:27:04.451Z,-1.90
2023-01-20T07:29:31.304Z,-1.90
2023-01-20T07:31:58.265Z,-2.00
2023-01-20T07:34:25.220Z,-2.00
2023-01-20T07:36:53.337Z,-1.90
2023-01-20T07:39:20.354Z,-1.90
2023-01-20T07:41:50.226Z,-1.60
2023-01-20T07:44:17.346Z,-1.60
2023-01-20T07:46:44.303Z,-2.40
2023-01-20T07:49:12.427Z,-1.90
2023-01-20T07:51:39.993Z,-2.10
2023-01-20T07:54:06.909Z,-2.20
2023-01-20T07:56:33.786Z,-2.30
2023-01-20T07:59:00.969Z,-2.20
2023-01-20T08:01:28.814Z,-2.20
2023-01-20T08:03:56.140Z,-2.10
2023-01-20T08:06:24.027Z,-2.10
2023-01-20T08:08:52.088Z,-2.00
2023-01-20T08:11:19.518Z,-2.00
2023-01-20T08:13:47.048Z,-1.90
2023-01-20T08:16:14.999Z,-1.80
2023-01-20T08:18:42.161Z,-1.70
2023-01-20T08:21:16.521Z,-1.50
2023-01-20T08:23:43.300Z,-1.50
2023-01-20T08:26:10.171Z,-1.50
2023-01-20T08:28:37.114Z,-1.50
2023-01-20T08:31:08.091Z,-1.40
2023-01-20T08:33:35.090Z,-1.50
2023-01-20T08:36:09.350Z,-1.70
2023-01-20T08:38:36.521Z,-1.80
2023-01-20T08:41:10.516Z,-1.60
2023-01-20T08:43:37.707Z,-1.30
2023-01-20T08:46:08.889Z,-0.70
2023-01-20T08:48:36.467Z,-0.30
2023-01-20T08:51:04.778Z,0.20
2023-01-20T08:53:31.717Z,0.60
2023-01-20T08:55:59.181Z,1.10
2023-01-20T08:58:27.512Z,1.50
2023-01-20T09:00:54.860Z,1.60
2023-01-20T09:03:22.247Z,1.60
2023-01-20T09:05:49.233Z,1.70
2023-01-20T09:08:17.430Z,1.50
2023-01-20T09:10:44.781Z,1.50
2023-01-20T09:13:12.021Z,1.50
2023-01-20T09:15:39.036Z,1.40
2023-01-20T09:18:05.907Z,1.40
2023-01-20T09:20:32.836Z,1.40
2023-01-20T09:23:03.160Z,1.80
2023-01-20T09:25:30.092Z,2.80
2023-01-20T09:27:59.929Z,3.30
2023-01-20T09:30:26.734Z,3.00
2023-01-20T09:32:55.395Z,2.80
2023-01-20T09:35:22.225Z,2.10
2023-01-20T09:38:07.496Z,2.70
2023-01-20T09:41:12.024Z,3.60
2023-01-20T09:43:55.165Z,3.10
2023-01-20T09:46:21.977Z,2.70
2023-01-20T09:49:13.680Z,1.90
2023-01-20T09:52:06.221Z,2.30
2023-01-20T09:54:38.244Z,2.30
2023-01-20T09:57:07.001Z,2.80
2023-01-20T09:59:39.267Z,3.70
2023-01-20T10:02:11.453Z,4.00
2023-01-20T10:04:43.695Z,4.30
2023-01-20T10:07:29.923Z,3.80
2023-01-20T10:10:09.598Z,4.00
2023-01-20T10:12:45.465Z,4.00
2023-01-20T10:15:15.203Z,3.40
2023-01-20T10:17:44.779Z,3.20
2023-01-20T10:20:20.009Z,3.10
2023-01-20T10:22:55.908Z,3.70
2023-01-20T10:25:25.189Z,5.10
2023-01-20T10:27:55.382Z,6.50
2023-01-20T10:30:25.303Z,6.80
2023-01-20T10:32:59.067Z,8.20
2023-01-20T10:35:26.947Z,7.70
2023-01-20T10:37:55.704Z,8.90
2023-01-20T10:40:30.313Z,10.20
2023-01-20T10:42:59.187Z,9.40
2023-01-20T10:45:46.288Z,9.60
2023-01-20T10:48:13.136Z,10.40
2023-01-20T10:50:39.917Z,8.90
2023-01-20T10:53:25.809Z,10.60
2023-01-20T10:56:12.902Z,11.10
2023-01-20T10:58:41.724Z,11.20
2023-01-20T11:01:13.762Z,9.40
2023-01-20T11:03:41.838Z,12.00
2023-01-20T11:06:13.730Z,13.10
2023-01-20T11:08:40.577Z,13.20
2023-01-20T11:11:12.976Z,10.70
2023-01-20T11:13:39.832Z,10.60
2023-01-20T11:16:20.595Z,12.10
2023-01-20T11:18:55.281Z,13.10
2023-01-20T11:21:26.398Z,13.70
2023-01-20T11:23:57.874Z,13.40
2023-01-20T11:26:32.434Z,12.80
2023-01-20T11:29:19.503Z,12.50
2023-01-20T11:31:49.488Z,11.30
2023-01-20T11:34:22.728Z,13.10
2023-01-20T11:36:50.315Z,14.00
2023-01-20T11:39:30.888Z,14.10
2023-01-20T11:42:25.010Z,14.40
2023-01-20T11:44:53.531Z,14.00
2023-01-20T11:47:20.356Z,15.00
2023-01-20T11:49:49.235Z,13.40
2023-01-20T11:52:20.195Z,12.80
2023-01-20T11:54:47.109Z,13.80
2023-01-20T11:57:16.781Z,11.20
2023-01-20T11:59:49.326Z,12.90
2023-01-20T12:02:16.205Z,14.10
2023-01-20T12:04:46.165Z,14.50
2023-01-20T12:07:14.855Z,14.10
2023-01-20T12:09:44.463Z,13.10
2023-01-20T12:12:11.322Z,11.60
2023-01-20T12:14:49.668Z,11.20
2023-01-20T12:17:23.982Z,9.80
2023-01-20T12:19:58.636Z,8.70
2023-01-20T12:22:40.680Z,8.10
2023-01-20T12:25:14.982Z,8.30
2023-01-20T12:28:05.215Z,9.00
2023-01-20T12:30:43.596Z,9.60
2023-01-20T12:33:21.476Z,10.50
2023-01-20T12:36:02.814Z,10.20
2023-01-20T12:38:35.204Z,9.10
2023-01-20T12:41:04.821Z,7.70
2023-01-20T12:43:31.738Z,8.40
2023-01-20T12:45:59.594Z,9.20
2023-01-20T12:48:33.592Z,9.30
2023-01-20T12:51:15.732Z,9.30
2023-01-20T12:53:50.092Z,8.60
2023-01-20T12:56:35.520Z,8.60
2023-01-20T12:59:17.292Z,8.30
2023-01-20T13:01:53.164Z,7.80
2023-01-20T13:04:38.768Z,7.90
2023-01-20T13:07:24.367Z,7.50
2023-01-20T13:10:14.004Z,6.80
2023-01-20T13:12:49.390Z,6.50
2023-01-20T13:15:30.091Z,5.90
2023-01-20T13:18:32.450Z,4.90
2023-01-20T13:20:59.321Z,4.50
2023-01-20T13:23:28.285Z,5.00
2023-01-20T13:25:55.691Z,5.20
2023-01-20T13:28:23.874Z,5.60
2023-01-20T13:30:54.029Z,5.90
2023-01-20T13:33:27.124Z,6.10
2023-01-20T13:35:54.349Z,6.10
2023-01-20T13:38:27.930Z,6.20
2023-01-20T13:40:55.828Z,6.30
2023-01-20T13:43:22.845Z,6.40
2023-01-20T13:46:09.794Z,6.30
2023-01-20T13:48:37.609Z,6.20
2023-01-20T13:51:16.926Z,6.10
2023-01-20T13:53:43.881Z,5.90
2023-01-20T13:56:26.994Z,6.00
2023-01-20T13:58:55.012Z,5.70
2023-01-20T14:01:22.094Z,5.50
2023-01-20T14:04:05.575Z,5.50
2023-01-20T14:06:36.003Z,5.40
2023-01-20T14:09:03.661Z,5.40
2023-01-20T14:11:31.424Z,5.40
2023-01-20T14:13:59.719Z,5.10
2023-01-20T14:16:28.116Z,4.80
2023-01-20T14:18:55.870Z,4.60
2023-01-20T14:21:29.714Z,4.70
2023-01-20T14:23:56.831Z,4.60
2023-01-20T14:26:24.999Z,4.60
2023-01-20T14:28:56.031Z,4.50
2023-01-20T14:31:28.665Z,4.40
2023-01-20T14:34:01.156Z,4.40
2023-01-20T14:36:30.752Z,4.30
2023-01-20T14:38:58.949Z,4.40
2023-01-20T14:41:27.328Z,4.40
2023-01-20T14:43:54.398Z,4.40
2023-01-20T14:46:21.806Z,4.30
2023-01-20T14:48:48.742Z,4.20
2023-01-20T14:51:15.707Z,4.00
2023-01-20T14:53:42.542Z,4.00
2023-01-20T14:56:21.703Z,4.00
2023-01-20T14:58:49.343Z,3.80
2023-01-20T15:01:23.867Z,3.60
2023-01-20T15:04:00.849Z,3.50
2023-01-20T15:06:27.712Z,3.40
2023-01-20T15:09:06.203Z,3.30
2023-01-20T15:11:33.755Z,3.20
2023-01-20T15:14:00.976Z,3.20
2023-01-20T15:16:29.389Z,3.10
2023-01-20T15:19:18.405Z,3.00
2023-01-20T15:21:58.897Z,3.00
2023-01-20T15:24:30.694Z,3.00
2023-01-20T15:26:58.985Z,2.90
2023-01-20T15:29:27.293Z,3.00
2023-01-20T15:31:54.942Z,3.00
2023-01-20T15:34:22.582Z,3.00
2023-01-20T15:36:50.103Z,3.10
2023-01-20T15:39:17.894Z,3.00
2023-01-20T15:41:45.361Z,3.00
2023-01-20T15:44:12.573Z,3.00
2023-01-20T15:46:40.171Z,2.90
2023-01-20T15:49:14.591Z,2.80
2023-01-20T15:51:42.651Z,2.70
2023-01-20T15:54:09.742Z,2.50
2023-01-20T15:56:38.894Z,2.30
2023-01-20T15:59:12.358Z,2.10
2023-01-20T16:01:39.528Z,2.00
2023-01-20T16:04:06.491Z,1.80
2023-01-20T16:06:34.067Z,1.60
2023-01-20T16:09:01.903Z,1.40
2023-01-20T16:11:28.711Z,1.30
2023-01-20T16:13:55.715Z,1.10
2023-01-20T16:16:23.637Z,1.00
2023-01-20T16:18:50.681Z,0.90
2023-01-20T16:21:18.400Z,0.90
2023-01-20T16:23:45.481Z,0.80
2023-01-20T16:26:25.837Z,0.60
2023-01-20T16:28:57.275Z,0.40
2023-01-20T16:31:24.956Z,0.40
2023-01-20T16:33:55.398Z,0.30
2023-01-20T16:36:23.494Z,0.30
2023-01-20T16:38:51.090Z,0.30
2023-01-20T16:41:28.728Z,0.40
2023-01-20T16:43:56.209Z,0.50
2023-01-20T16:46:24.075Z,0.60
2023-01-20T16:48:51.407Z,0.70
2023-01-20T16:51:19.849Z,0.70
2023-01-20T16:53:47.019Z,0.90
2023-01-20T16:56:15.005Z,1.00
2023-01-20T16:58:42.184Z,1.00
2023-01-20T17:01:12.319Z,1.10
2023-01-20T17:03:39.776Z,1.10
2023-01-20T17:06:13.233Z,1.10
2023-01-20T17:08:42.691Z,1.10
2023-01-20T17:11:09.524Z,1.10
2023-01-20T17:13:38.145Z,1.20
2023-01-20T17:16:05.872Z,1.30
2023-01-20T17:18:32.752Z,1.20
2023-01-20T17:21:03.594Z,1.30
2023-01-20T17:23:30.399Z,1.20
2023-01-20T17:25:57.331Z,1.10
2023-01-20T17:28:24.122Z,1.10
2023-01-20T17:30:51.007Z,1.00
2023-01-20T17:33:17.786Z,0.90
2023-01-20T17:35:46.992Z,1.00
2023-01-20T17:38:13.928Z,1.00
2023-01-20T17:40:40.736Z,0.90
2023-01-20T17:43:07.527Z,0.80
2023-01-20T17:45:35.125Z,0.80
2023-01-20T17:48:04.521Z,0.80
2023-01-20T17:50:31.476Z,0.70
2023-01-20T17:52:58.267Z,0.70
2023-01-20T17:55:25.277Z,0.80
2023-01-20T17:57:52.073Z,0.80
2023-01-20T18:00:19.395Z,0.70
2023-01-20T18:02:46.202Z,0.50
2023-01-20T18:05:13.185Z,0.50
2023-01-20T18:07:39.996Z,0.50
2023-01-20T18:10:06.874Z,0.50
2023-01-20T18:12:33.799Z,0.50
2023-01-20T18:15:00.549Z,0.40
2023-01-20T18:17:27.413Z,0.40
2023-01-20T18:19:54.209Z,0.30
2023-01-20T18:22:21.151Z,0.50
2023-01-20T18:24:48.010Z,0.90
2023-01-20T18:27:14.906Z,0.60
2023-01-20T18:29:41.889Z,0.50
2023-01-20T18:32:08.697Z,0.50
2023-01-20T18:34:35.628Z,0.40
2023-01-20T18:37:02.530Z,0.40
2023-01-20T18:39:29.863Z,0.40
2023-01-20T18:41:56.706Z,0.50
2023-01-20T18:44:23.544Z,0.70
2023-01-20T18:46:50.596Z,0.60
2023-01-20T18:49:17.796Z,0.70
2023-01-20T18:51:44.787Z,0.70
2023-01-20T18:54:13.420Z,0.60
2023-01-20T18:56:40.270Z,0.60
2023-01-20T18:59:07.646Z,0.50
2023-01-20T19:01:39.721Z,0.60
2023-01-20T19:28:28.153Z,0.70
2023-01-20T19:30:55.064Z,0.60
2023-01-20T19:33:22.023Z,0.70
2023-01-20T19:35:48.675Z,0.60
2023-01-20T19:38:15.385Z,0.40
2023-01-20T19:40:42.182Z,0.40
2023-01-20T19:43:08.950Z,0.40
2023-01-20T19:45:45.350Z,0.50
2023-01-20T19:48:12.640Z,0.60
2023-01-20T19:50:39.627Z,0.50
2023-01-20T19:53:06.303Z,0.50
2023-01-20T19:55:32.982Z,0.40
2023-01-20T19:57:59.633Z,0.50
2023-01-20T20:00:26.339Z,0.40
2023-01-20T20:02:53.877Z,0.40
2023-01-20T20:05:20.624Z,0.50
2023-01-20T20:07:47.385Z,0.50
2023-01-20T20:10:16.360Z,0.50
2023-01-20T20:12:43.287Z,0.40
2023-01-20T20:15:10.398Z,0.30
2023-01-20T20:17:37.082Z,0.30
2023-01-20T20:20:03.798Z,0.40
2023-01-20T20:22:30.647Z,0.40
2023-01-20T20:24:57.433Z,0.40
2023-01-20T20:27:24.079Z,0.40
2023-01-20T20:29:50.754Z,0.50
2023-01-20T20:32:17.398Z,0.50
2023-01-20T20:34:44.074Z,0.50
2023-01-20T20:37:10.709Z,0.50
2023-01-20T20:39:37.482Z,0.60
2023-01-20T20:42:04.287Z,0.60
2023-01-20T20:44:31.069Z,0.60
2023-01-20T20:46:57.932Z,0.60
2023-01-20T20:49:24.948Z,0.60
2023-01-20T20:51:51.789Z,0.60
2023-01-20T20:54:19.215Z,0.50
2023-01-20T20:56:45.969Z,0.60
2023-01-20T20:59:12.746Z,0.50
2023-01-20T21:01:39.594Z,0.60
2023-01-20T21:04:06.489Z,0.60
2023-01-20T21:06:33.517Z,0.60
2023-01-20T21:09:00.587Z,0.50
2023-01-20T21:11:27.895Z,0.40
2023-01-20T21:13:54.635Z,0.40
2023-01-20T21:16:23.412Z,0.40
2023-01-20T21:18:51.839Z,0.30
2023-01-20T21:21:19.451Z,0.40
2023-01-20T21:23:56.125Z,0.40
2023-01-20T21:26:23.801Z,0.50
2023-01-20T21:28:50.487Z,0.50
2023-01-20T21:31:20.665Z,0.50
2023-01-20T21:33:51.024Z,0.50
2023-01-20T21:36:17.745Z,0.60
2023-01-20T21:38:47.356Z,0.50
2023-01-20T21:41:14.700Z,0.60
2023-01-20T21:44:01.029Z,0.50
2023-01-20T21:46:28.643Z,0.50
2023-01-20T21:49:14.104Z,0.50
2023-01-20T21:51:59.504Z,0.60
2023-01-20T21:54:30.028Z,0.60
2023-01-20T21:56:57.041Z,0.60
2023-01-20T21:59:23.865Z,0.40
2023-01-20T22:01:50.683Z,0.30
2023-01-20T22:04:17.665Z,0.30
2023-01-20T22:06:44.824Z,0.30
2023-01-20T22:09:11.754Z,0.30
2023-01-20T22:11:38.419Z,0.30
2023-01-20T22:14:05.268Z,0.30
2023-01-20T22:16:32.338Z,0.20
2023-01-20T22:18:59.248Z,0.20
2023-01-20T22:21:26.331Z,0.20
2023-01-20T22:23:53.668Z,0.10
2023-01-20T22:26:20.473Z,0.20
2023-01-20T22:28:47.131Z,0.10
2023-01-20T22:31:17.184Z,0.20
2023-01-20T22:33:43.940Z,0.10
2023-01-20T22:36:10.683Z,0.10
2023-01-20T22:38:37.425Z,0.10
2023-01-20T22:41:05.159Z,0.00
2023-01-20T22:43:31.931Z,0.10
2023-01-20T22:45:59.675Z,0.10
2023-01-20T22:48:26.759Z,0.00
2023-01-20T22:50:54.629Z,-0.10
2023-01-20T22:53:21.418Z,-0.20
2023-01-20T22:56:00.205Z,-0.20
2023-01-20T22:58:27.785Z,-0.20
2023-01-20T23:00:54.460Z,-0.20
2023-01-20T23:03:21.186Z,-0.20
2023-01-20T23:05:58.420Z,-0.10
2023-01-20T23:08:26.590Z,-0.10
2023-01-20T23:10:57.726Z,0.00
2023-01-20T23:13:24.466Z,0.00
2023-01-20T23:15:51.428Z,-0.10
2023-01-20T23:18:18.740Z,-0.20
2023-01-20T23:20:49.495Z,-0.20
2023-01-20T23:23:16.654Z,-0.10
2023-01-20T23:25:43.732Z,-0.10
2023-01-20T23:28:10.587Z,-0.10
2023-01-20T23:30:37.920Z,-0.20
2023-01-20T23:33:05.091Z,-0.20
2023-01-20T23:35:33.769Z,-0.30
2023-01-20T23:38:00.671Z,-0.30
2023-01-20T23:40:27.490Z,-0.30
2023-01-20T23:42:54.130Z,-0.30
2023-01-20T23:45:20.834Z,-0.40
2023-01-20T23:47:47.466Z,-0.40
2023-01-20T23:50:14.393Z,-0.50
2023-01-20T23:52:41.213Z,-0.50
2023-01-20T23:55:08.102Z,-0.40
2023-01-20T23:57:34.878Z,-0.60
